Time;durP1;ratioP1;P1;durP2;ratioP2;P2;SDS_P1;SDS_P2;PMS_P1;PMS_P2;Temp;Humidity;BMP_temperature;BMP_pressure;BME280_temperature;BME280_humidity;BME280_pressure;Samples;Min_cycle;Max_cycle;Signal;HPM_P1;HPM_P2
2022/11/11 00:01:44;;;;;;;6.05;5.43;;;11.90;99.90;;;;;;5026793;28;20049;-73
2022/11/11 00:04:10;;;;;;;9.48;5.25;;;11.90;99.90;;;;;;5024955;28;20545;-73
2022/11/11 00:06:35;;;;;;;10.70;5.30;;;11.90;99.90;;;;;;5025671;28;20637;-75
2022/11/11 00:09:01;;;;;;;7.95;4.80;;;11.90;99.90;;;;;;5024926;28;20041;-75
2022/11/11 00:11:26;;;;;;;10.20;4.53;;;11.90;99.90;;;;;;5026758;28;20057;-73
2022/11/11 00:13:53;;;;;;;10.85;5.70;;;11.80;99.90;;;;;;5025236;28;20085;-73
2022/11/11 00:16:19;;;;;;;8.55;5.53;;;11.80;99.90;;;;;;5025903;28;20076;-74
2022/11/11 00:27:08;;;;;;;10.43;7.00;;;11.80;99.90;;;;;;5005702;28;20061;-75
2022/11/11 00:29:34;;;;;;;12.13;5.93;;;11.80;99.90;;;;;;5010172;28;20045;-75
2022/11/11 00:35:52;;;;;;;7.10;5.85;;;11.80;99.90;;;;;;5025841;28;20052;-75
2022/11/11 00:37:29;;;;;;;7.93;5.82;;;11.80;99.90;;;;;;5023904;28;20049;-78
2022/11/11 00:39:54;;;;;;;8.25;5.15;;;11.80;99.90;;;;;;5024948;28;20041;-74
2022/11/11 00:42:20;;;;;;;12.88;6.47;;;11.80;99.90;;;;;;5024150;28;20056;-73
2022/11/11 00:44:45;;;;;;;11.85;6.13;;;11.80;99.90;;;;;;5024617;28;20565;-74
2022/11/11 00:52:40;;;;;;;10.73;7.10;;;11.80;99.90;;;;;;5023953;28;20562;-75
2022/11/11 00:55:06;;;;;;;9.45;6.50;;;11.70;99.90;;;;;;5025404;28;20068;-73
2022/11/11 00:57:31;;;;;;;9.10;5.68;;;11.70;99.90;;;;;;5025550;28;20061;-74
2022/11/11 00:59:57;;;;;;;9.23;6.13;;;11.70;99.90;;;;;;5024640;28;20038;-74
2022/11/11 01:02:22;;;;;;;9.52;6.15;;;11.80;99.90;;;;;;5024723;28;20045;-74
2022/11/11 01:04:48;;;;;;;18.70;6.85;;;11.70;99.90;;;;;;5025908;28;20037;-76
2022/11/11 01:07:14;;;;;;;10.25;6.00;;;11.70;99.90;;;;;;5024254;28;20045;-74
2022/11/11 01:09:39;;;;;;;10.65;6.25;;;11.70;99.90;;;;;;5025070;28;20581;-72
2022/11/11 01:12:05;;;;;;;8.18;6.13;;;11.70;99.90;;;;;;5024997;28;20056;-74
2022/11/11 01:14:30;;;;;;;7.93;5.15;;;11.70;99.90;;;;;;5025088;28;20116;-75
2022/11/11 01:16:56;;;;;;;13.77;6.30;;;11.70;99.90;;;;;;5025698;28;20068;-73
2022/11/11 01:19:21;;;;;;;10.25;6.10;;;11.70;99.90;;;;;;5024874;28;20095;-74
2022/11/11 01:21:47;;;;;;;13.63;5.95;;;11.70;99.90;;;;;;5024076;28;20044;-73
2022/11/11 01:24:12;;;;;;;8.70;6.43;;;11.70;99.90;;;;;;5023595;28;20049;-74
2022/11/11 01:26:38;;;;;;;9.00;5.43;;;11.70;99.90;;;;;;5009039;28;20041;-75
2022/11/11 01:29:04;;;;;;;11.93;6.78;;;11.70;99.90;;;;;;5004856;28;20049;-73
2022/11/11 01:31:29;;;;;;;10.10;6.28;;;11.60;99.90;;;;;;5003585;28;20128;-73
2022/11/11 01:33:55;;;;;;;10.13;6.18;;;11.70;99.90;;;;;;5005530;28;20041;-72
2022/11/11 01:36:25;;;;;;;7.47;5.60;;;11.70;99.90;;;;;;5003803;28;20048;-75
2022/11/11 01:38:57;;;;;;;13.43;7.50;;;11.70;99.90;;;;;;5004107;28;20337;-73
2022/11/11 01:41:32;;;;;;;9.47;5.53;;;11.70;99.90;;;;;;5004610;28;20068;-74
2022/11/11 01:44:19;;;;;;;8.07;5.65;;;11.70;99.90;;;;;;4987834;28;20292;-73
2022/11/11 01:46:49;;;;;;;9.57;6.93;;;11.70;99.90;;;;;;5005725;28;20085;-74
2022/11/11 01:49:24;;;;;;;9.52;6.05;;;11.70;99.90;;;;;;5003738;28;20096;-74
2022/11/11 01:52:16;;;;;;;10.75;6.63;;;11.70;99.90;;;;;;5002833;28;20046;-73
2022/11/11 01:54:44;;;;;;;12.00;6.38;;;11.70;99.90;;;;;;5003793;28;20034;-74
2022/11/11 01:57:22;;;;;;;8.15;7.30;;;11.70;99.90;;;;;;5002833;28;20061;-75
2022/11/11 01:59:51;;;;;;;9.27;6.53;;;11.70;99.90;;;;;;5004792;28;20046;-73
2022/11/11 02:02:26;;;;;;;9.52;5.95;;;11.70;99.90;;;;;;5004548;28;20048;-72
2022/11/11 02:07:38;;;;;;;7.68;5.78;;;11.70;99.90;;;;;;5003750;28;20065;-74
2022/11/11 02:10:07;;;;;;;9.02;5.38;;;11.70;99.90;;;;;;5003958;28;20038;-75
2022/11/11 02:15:16;;;;;;;12.32;6.25;;;11.70;99.90;;;;;;5003082;28;20056;-74
2022/11/11 02:17:42;;;;;;;14.05;7.75;;;11.70;99.90;;;;;;4986811;28;20046;-75
2022/11/11 02:20:09;;;;;;;8.77;6.10;;;11.70;99.90;;;;;;5003038;28;20099;-75
2022/11/11 02:22:53;;;;;;;14.40;7.43;;;11.70;99.90;;;;;;5001944;28;20061;-73
2022/11/11 02:25:22;;;;;;;18.02;7.95;;;11.80;99.90;;;;;;4999918;28;20245;-74
2022/11/11 02:27:50;;;;;;;10.57;6.75;;;11.70;99.90;;;;;;4984627;28;20070;-73
2022/11/11 02:30:18;;;;;;;10.05;7.47;;;11.80;99.90;;;;;;4976571;28;20108;-72
2022/11/11 02:32:45;;;;;;;13.95;8.07;;;11.80;99.90;;;;;;5004399;28;20042;-73
2022/11/11 02:35:23;;;;;;;15.10;8.93;;;11.70;99.90;;;;;;5003087;28;20715;-72
2022/11/11 02:37:52;;;;;;;11.93;8.73;;;11.70;99.90;;;;;;4987126;28;20115;-73
2022/11/11 02:40:35;;;;;;;15.65;8.52;;;11.70;99.90;;;;;;5002856;28;20046;-74
2022/11/11 02:43:00;;;;;;;16.83;8.50;;;11.70;99.90;;;;;;5004537;28;20539;-75
2022/11/11 02:45:26;;;;;;;16.20;10.05;;;11.70;99.90;;;;;;4989943;28;20077;-73
2022/11/11 02:47:51;;;;;;;17.02;9.15;;;11.70;99.90;;;;;;5006719;28;20049;-73
2022/11/11 02:50:17;;;;;;;11.73;8.15;;;11.60;99.90;;;;;;5006647;28;20054;-73
2022/11/11 02:52:43;;;;;;;13.20;9.60;;;11.60;99.90;;;;;;5006900;28;20540;-74
2022/11/11 02:55:09;;;;;;;12.88;7.65;;;11.60;99.90;;;;;;5006613;28;20042;-76
2022/11/11 02:57:36;;;;;;;11.95;8.82;;;11.60;99.90;;;;;;5008009;28;20488;-73
2022/11/11 03:00:03;;;;;;;9.80;7.88;;;11.60;99.90;;;;;;5005963;28;20563;-74
2022/11/11 03:02:29;;;;;;;11.30;9.43;;;11.60;99.90;;;;;;5007659;28;20038;-75
2022/11/11 03:04:56;;;;;;;13.73;9.43;;;11.60;99.90;;;;;;5008151;28;20034;-73
2022/11/11 03:07:22;;;;;;;11.38;8.20;;;11.60;99.90;;;;;;5006501;28;20107;-73
2022/11/11 03:09:48;;;;;;;13.60;7.80;;;11.60;99.90;;;;;;5007862;28;20275;-74
2022/11/11 03:12:14;;;;;;;11.98;8.00;;;11.60;99.90;;;;;;5007380;28;20655;-73
2022/11/11 03:14:40;;;;;;;14.90;8.73;;;11.60;99.90;;;;;;5007970;28;20042;-74
2022/11/11 03:19:51;;;;;;;14.02;9.27;;;11.60;99.90;;;;;;4987681;28;20051;-73
2022/11/11 03:22:16;;;;;;;11.02;7.45;;;11.60;99.90;;;;;;4986503;28;20039;-72
2022/11/11 03:27:26;;;;;;;15.65;8.38;;;11.60;99.90;;;;;;4988038;28;20050;-73
2022/11/11 03:29:52;;;;;;;8.02;7.05;;;11.60;99.90;;;;;;4988308;28;20050;-74
2022/11/11 03:32:18;;;;;;;15.18;8.10;;;11.60;99.90;;;;;;4986113;28;20162;-73
2022/11/11 03:34:43;;;;;;;9.75;7.10;;;11.60;99.90;;;;;;4987594;28;20532;-72
2022/11/11 03:39:54;;;;;;;10.30;7.72;;;11.60;99.90;;;;;;4987785;28;20585;-72
2022/11/11 03:42:20;;;;;;;8.18;7.40;;;11.60;99.90;;;;;;4986102;28;20069;-73
2022/11/11 03:44:46;;;;;;;10.85;8.60;;;11.60;99.90;;;;;;4986304;28;20047;-74
2022/11/11 03:47:12;;;;;;;13.02;9.52;;;11.60;99.90;;;;;;4987703;28;20068;-73
2022/11/11 03:49:37;;;;;;;15.73;9.82;;;11.60;99.90;;;;;;5004848;28;20037;-73
2022/11/11 03:52:03;;;;;;;13.20;10.60;;;11.60;99.90;;;;;;5004001;28;20511;-73
2022/11/11 03:54:28;;;;;;;15.13;10.10;;;11.60;99.90;;;;;;4989333;28;20516;-76
2022/11/11 03:57:29;;;;;;;16.17;11.05;;;11.60;99.90;;;;;;5005637;28;20046;-73
2022/11/11 03:59:43;;;;;;;21.83;11.77;;;11.60;99.90;;;;;;5006217;28;20458;-73
2022/11/11 04:10:27;;;;;;;19.58;12.15;;;11.50;99.90;;;;;;5006703;28;20119;-72
2022/11/11 04:21:42;;;;;;;13.75;12.02;;;11.50;99.90;;;;;;5015620;28;20608;-73
2022/11/11 04:23:52;;;;;;;21.13;14.05;;;11.50;99.90;;;;;;5026105;28;20496;-73
2022/11/11 04:26:18;;;;;;;17.88;13.32;;;11.40;99.90;;;;;;5013363;28;20100;-72
2022/11/11 04:31:27;;;;;;;23.63;13.30;;;11.40;99.90;;;;;;5005205;28;20057;-73
2022/11/11 04:33:53;;;;;;;19.15;12.57;;;11.40;99.90;;;;;;5004928;28;20050;-75
2022/11/11 04:36:18;;;;;;;23.00;15.13;;;11.40;99.90;;;;;;5003960;28;20091;-74
2022/11/11 04:41:28;;;;;;;15.15;12.93;;;11.40;99.90;;;;;;5006549;28;20061;-75
2022/11/11 04:46:37;;;;;;;25.48;14.43;;;11.40;99.90;;;;;;5004719;28;20100;-73
2022/11/11 04:49:03;;;;;;;21.42;14.68;;;11.40;99.90;;;;;;5004388;28;20054;-75
2022/11/11 04:52:25;;;;;;;22.98;15.02;;;11.40;99.90;;;;;;5004844;28;20048;-76
2022/11/11 04:54:14;;;;;;;24.70;15.32;;;11.40;99.90;;;;;;5004004;28;20054;-75
2022/11/11 04:56:52;;;;;;;21.52;13.10;;;11.40;99.90;;;;;;5004820;28;20041;-74
2022/11/11 04:59:19;;;;;;;23.42;13.98;;;11.40;99.90;;;;;;5005553;28;20153;-74
2022/11/11 05:04:30;;;;;;;19.48;13.85;;;11.30;99.90;;;;;;5003929;28;20060;-73
2022/11/11 05:09:40;;;;;;;20.70;13.95;;;11.30;99.90;;;;;;5003762;28;20054;-73
2022/11/11 05:12:05;;;;;;;32.53;15.63;;;11.20;99.90;;;;;;4987232;28;20433;-74
2022/11/11 05:22:43;;;;;;;18.08;15.55;;;11.20;99.90;;;;;;5003228;28;20056;-75
2022/11/11 05:25:25;;;;;;;30.05;17.27;;;11.10;99.90;;;;;;5001248;28;20516;-73
2022/11/11 05:27:52;;;;;;;19.98;14.05;;;11.10;99.90;;;;;;4985835;28;20046;-73
2022/11/11 05:30:19;;;;;;;22.42;14.52;;;11.10;99.90;;;;;;4985371;28;20077;-73
2022/11/11 05:32:45;;;;;;;33.72;14.32;;;11.20;99.90;;;;;;4985587;28;20050;-73
2022/11/11 05:35:12;;;;;;;22.77;15.02;;;11.10;99.90;;;;;;5000823;28;20580;-73
2022/11/11 05:37:38;;;;;;;23.60;16.38;;;11.10;99.90;;;;;;5015323;28;20080;-74
2022/11/11 05:40:05;;;;;;;19.80;15.88;;;11.10;99.90;;;;;;5016598;28;20084;-76
2022/11/11 05:42:31;;;;;;;19.73;15.20;;;11.10;99.90;;;;;;4990095;28;20403;-73
2022/11/11 05:44:57;;;;;;;25.92;16.00;;;11.10;99.90;;;;;;5005457;28;20041;-76
2022/11/11 05:47:22;;;;;;;24.80;16.80;;;11.10;99.90;;;;;;5004452;28;20663;-73
2022/11/11 05:49:48;;;;;;;23.73;17.10;;;11.10;99.90;;;;;;5008392;28;20042;-76
2022/11/11 05:52:15;;;;;;;30.23;15.73;;;11.10;99.90;;;;;;5002215;28;20056;-75
2022/11/11 05:54:41;;;;;;;20.08;13.88;;;11.10;99.90;;;;;;5002992;28;20116;-74
2022/11/11 05:57:08;;;;;;;26.75;15.63;;;11.10;99.90;;;;;;5016811;28;20042;-73
2022/11/11 05:59:33;;;;;;;23.02;15.75;;;11.10;99.90;;;;;;5024691;28;20436;-74
2022/11/11 06:01:59;;;;;;;22.58;14.40;;;11.10;99.90;;;;;;5005242;28;20057;-76
2022/11/11 06:04:24;;;;;;;25.20;15.55;;;11.10;99.90;;;;;;5005002;28;20104;-75
2022/11/11 06:06:51;;;;;;;21.95;15.50;;;11.10;99.90;;;;;;5003322;28;20405;-75
2022/11/11 06:09:16;;;;;;;24.30;17.60;;;11.10;99.90;;;;;;5004196;28;20060;-74
2022/11/11 06:11:42;;;;;;;27.80;16.30;;;11.10;99.90;;;;;;5003941;28;20042;-73
2022/11/11 06:14:08;;;;;;;41.35;17.60;;;11.10;99.90;;;;;;5004283;28;20120;-73
2022/11/11 06:16:33;;;;;;;24.98;17.27;;;11.10;99.90;;;;;;5005007;28;20440;-74
2022/11/11 06:18:59;;;;;;;30.17;17.02;;;11.10;99.90;;;;;;5005899;28;20038;-74
2022/11/11 06:21:26;;;;;;;27.52;17.17;;;11.10;99.90;;;;;;5008431;28;20042;-73
2022/11/11 06:23:51;;;;;;;30.83;17.58;;;11.10;99.90;;;;;;5011275;28;20546;-73
2022/11/11 06:26:18;;;;;;;23.98;18.65;;;11.10;99.90;;;;;;5019523;28;20066;-75
2022/11/11 06:28:47;;;;;;;24.48;17.67;;;11.10;99.90;;;;;;5009507;28;20073;-75
2022/11/11 06:31:19;;;;;;;25.83;17.77;;;11.10;99.90;;;;;;5013990;28;20124;-77
2022/11/11 06:33:45;;;;;;;23.27;16.58;;;11.10;99.90;;;;;;4993307;28;20054;-75
2022/11/11 06:36:13;;;;;;;28.50;17.35;;;11.10;99.90;;;;;;5024967;28;20502;-75
2022/11/11 06:38:40;;;;;;;22.60;15.75;;;11.20;99.90;;;;;;5012011;28;20037;-76
2022/11/11 06:41:06;;;;;;;26.65;18.23;;;11.20;99.90;;;;;;5023285;28;20042;-76
2022/11/11 06:43:32;;;;;;;22.00;16.27;;;11.20;99.90;;;;;;5007504;28;20104;-75
2022/11/11 06:45:57;;;;;;;26.77;15.30;;;11.20;99.90;;;;;;4988366;28;20038;-74
2022/11/11 06:48:27;;;;;;;20.00;14.02;;;11.20;99.90;;;;;;5025239;28;20107;-75
2022/11/11 06:50:54;;;;;;;25.00;16.83;;;11.20;99.90;;;;;;5011000;28;20125;-75
2022/11/11 06:53:21;;;;;;;32.60;17.88;;;11.20;99.90;;;;;;5007631;28;20049;-75
2022/11/11 06:55:46;;;;;;;25.83;17.35;;;11.20;99.90;;;;;;5006576;28;20125;-77
2022/11/11 06:58:18;;;;;;;32.78;15.63;;;11.20;99.90;;;;;;5006386;28;20121;-76
2022/11/11 07:00:45;;;;;;;27.48;17.92;;;11.20;99.90;;;;;;5002250;28;20046;-77
2022/11/11 07:03:13;;;;;;;24.67;17.10;;;11.20;99.90;;;;;;5006750;28;20045;-74
2022/11/11 07:05:39;;;;;;;29.58;17.20;;;11.20;99.90;;;;;;5006559;28;20100;-76
2022/11/11 07:08:07;;;;;;;24.02;16.52;;;11.20;99.90;;;;;;5005583;28;20046;-75
2022/11/11 07:10:36;;;;;;;21.90;15.25;;;11.20;99.90;;;;;;5003955;28;20049;-75
2022/11/11 07:13:02;;;;;;;25.85;16.15;;;11.20;99.90;;;;;;5004466;28;20116;-75
2022/11/11 07:15:28;;;;;;;18.80;13.70;;;11.20;99.90;;;;;;5004411;28;20501;-76
2022/11/11 07:17:53;;;;;;;26.70;18.30;;;11.20;99.90;;;;;;5004434;28;20129;-76
2022/11/11 07:20:19;;;;;;;27.25;15.50;;;11.20;99.90;;;;;;5005135;28;20100;-73
2022/11/11 07:22:46;;;;;;;25.67;17.67;;;11.20;99.90;;;;;;5005650;28;20096;-78
2022/11/11 07:25:11;;;;;;;22.88;16.45;;;11.20;99.90;;;;;;5005389;28;20041;-74
2022/11/11 07:27:40;;;;;;;24.33;15.95;;;11.20;99.90;;;;;;4987525;28;20038;-74
2022/11/11 07:30:08;;;;;;;31.33;18.45;;;11.20;99.90;;;;;;4990248;28;20048;-75
2022/11/11 07:32:34;;;;;;;20.45;15.73;;;11.20;99.90;;;;;;5012599;28;20085;-78
2022/11/11 07:34:59;;;;;;;20.90;16.70;;;11.20;99.90;;;;;;5010004;28;20081;-77
2022/11/11 07:37:25;;;;;;;23.13;16.90;;;11.20;99.90;;;;;;5006116;28;20074;-79
2022/11/11 07:39:51;;;;;;;22.63;15.43;;;11.20;99.90;;;;;;5006684;28;20041;-76
2022/11/11 07:42:16;;;;;;;23.58;17.00;;;11.20;99.90;;;;;;5008096;28;20072;-75
2022/11/11 07:44:42;;;;;;;23.13;15.15;;;11.20;99.90;;;;;;5006561;28;20042;-76
2022/11/11 07:47:08;;;;;;;22.38;15.80;;;11.20;99.90;;;;;;5018618;28;20042;-76
2022/11/11 07:49:33;;;;;;;20.10;15.07;;;11.20;99.90;;;;;;5006528;28;20081;-76
2022/11/11 07:51:59;;;;;;;26.63;17.55;;;11.20;99.90;;;;;;5004705;28;20021;-77
2022/11/11 07:54:24;;;;;;;23.75;15.43;;;11.30;99.90;;;;;;5004648;28;20096;-76
2022/11/11 07:56:50;;;;;;;23.38;16.77;;;11.30;99.90;;;;;;5005508;28;20066;-77
2022/11/11 07:59:16;;;;;;;25.05;16.95;;;11.30;99.90;;;;;;5013082;28;20095;-75
2022/11/11 08:01:44;;;;;;;20.40;15.27;;;11.30;99.90;;;;;;5007906;28;20411;-76
2022/11/11 08:04:10;;;;;;;24.60;15.82;;;11.30;99.90;;;;;;5015942;28;20128;-76
2022/11/11 08:06:36;;;;;;;28.45;17.60;;;11.30;99.90;;;;;;5008031;28;20133;-74
2022/11/11 08:09:01;;;;;;;24.02;18.40;;;11.30;99.90;;;;;;5003741;28;20073;-76
2022/11/11 08:14:11;;;;;;;25.15;18.50;;;11.30;99.90;;;;;;5004199;28;20112;-76
2022/11/11 08:16:36;;;;;;;23.58;16.90;;;11.30;99.90;;;;;;5005067;28;20038;-75
2022/11/11 08:19:02;;;;;;;28.98;15.73;;;11.30;99.90;;;;;;4987583;28;20030;-75
2022/11/11 08:21:27;;;;;;;24.13;16.80;;;11.30;99.90;;;;;;5017820;28;20059;-75
2022/11/11 08:23:56;;;;;;;27.13;18.35;;;11.30;99.90;;;;;;5023815;28;20037;-76
2022/11/11 08:26:22;;;;;;;23.77;17.38;;;11.30;99.90;;;;;;4998741;28;20038;-77
2022/11/11 08:28:48;;;;;;;20.83;16.50;;;11.20;99.90;;;;;;4984790;28;20126;-75
2022/11/11 08:31:14;;;;;;;22.60;16.52;;;11.30;99.90;;;;;;4993298;28;20205;-76
2022/11/11 08:33:40;;;;;;;21.45;17.92;;;11.30;99.90;;;;;;5002652;28;20045;-76
2022/11/11 08:36:06;;;;;;;25.90;17.38;;;11.30;99.90;;;;;;4996987;28;20427;-75
2022/11/11 08:38:33;;;;;;;27.88;19.08;;;11.30;99.90;;;;;;5004524;28;20069;-76
2022/11/11 08:41:00;;;;;;;23.73;17.08;;;11.30;99.90;;;;;;5002736;28;20160;-78
2022/11/11 08:43:26;;;;;;;26.23;17.45;;;11.30;99.90;;;;;;5005093;28;20161;-78
2022/11/11 08:45:52;;;;;;;26.70;18.10;;;11.20;99.90;;;;;;5010383;28;20137;-77
2022/11/11 08:48:18;;;;;;;30.63;17.48;;;11.20;99.90;;;;;;5007422;28;20038;-77
2022/11/11 08:50:44;;;;;;;37.42;18.30;;;11.20;99.90;;;;;;5012824;28;20084;-77
2022/11/11 08:53:10;;;;;;;25.80;17.13;;;11.20;99.90;;;;;;5005119;28;20112;-77
2022/11/11 08:55:37;;;;;;;25.40;16.67;;;11.20;99.90;;;;;;5005813;28;20033;-76
2022/11/11 08:58:05;;;;;;;24.52;17.35;;;11.30;99.90;;;;;;4987590;28;20056;-77
2022/11/11 09:00:32;;;;;;;27.83;18.40;;;11.20;99.90;;;;;;5003315;28;20037;-74
2022/11/11 09:03:03;;;;;;;23.55;17.60;;;11.20;99.90;;;;;;5004376;28;20426;-75
2022/11/11 09:05:29;;;;;;;25.50;17.80;;;11.20;99.90;;;;;;5002578;28;20041;-76
2022/11/11 09:07:54;;;;;;;26.95;19.33;;;11.20;99.90;;;;;;5008468;28;20072;-73
2022/11/11 09:10:20;;;;;;;30.73;17.73;;;11.20;99.90;;;;;;5008321;28;20045;-74
2022/11/11 09:12:46;;;;;;;28.55;18.25;;;11.20;99.90;;;;;;5014654;28;20085;-74
2022/11/11 09:15:11;;;;;;;22.08;16.80;;;11.30;99.90;;;;;;5002588;28;20077;-74
2022/11/11 09:17:37;;;;;;;24.73;18.50;;;11.30;99.90;;;;;;5004274;28;20041;-74
2022/11/11 09:20:03;;;;;;;24.48;16.90;;;11.30;99.90;;;;;;5022204;28;20099;-75
2022/11/11 09:22:29;;;;;;;26.95;17.98;;;11.20;99.90;;;;;;5021786;28;20531;-75
2022/11/11 09:24:55;;;;;;;24.13;17.00;;;11.30;99.90;;;;;;5023357;28;20056;-74
2022/11/11 09:27:21;;;;;;;21.27;15.15;;;11.30;99.90;;;;;;5017674;28;20484;-74
2022/11/11 09:29:46;;;;;;;29.88;18.33;;;11.30;99.90;;;;;;5022482;28;20395;-74
2022/11/11 09:32:12;;;;;;;25.50;19.45;;;11.30;99.90;;;;;;5023442;28;20088;-74
2022/11/11 09:34:38;;;;;;;26.73;18.42;;;11.30;99.90;;;;;;5022073;28;20330;-74
2022/11/11 09:37:03;;;;;;;31.20;18.50;;;11.30;99.90;;;;;;5002827;28;20057;-75
2022/11/11 09:39:29;;;;;;;25.42;18.80;;;11.30;99.90;;;;;;5003839;28;20537;-75
2022/11/11 09:42:10;;;;;;;25.67;16.08;;;11.30;99.90;;;;;;5001329;28;20153;-74
2022/11/11 09:44:47;;;;;;;18.98;15.77;;;11.30;99.90;;;;;;5002209;28;20068;-74
2022/11/11 09:47:41;;;;;;;28.40;18.48;;;11.30;99.90;;;;;;5001925;28;20504;-74
2022/11/11 09:50:12;;;;;;;24.13;16.98;;;11.40;99.90;;;;;;5002462;28;20404;-74
2022/11/11 09:52:53;;;;;;;26.17;16.23;;;11.30;99.90;;;;;;5003767;28;20113;-74
2022/11/11 09:55:40;;;;;;;22.38;16.33;;;11.40;99.90;;;;;;5019222;28;20681;-74
2022/11/11 09:58:32;;;;;;;26.52;17.02;;;11.30;99.90;;;;;;5023344;28;20052;-74
2022/11/11 10:01:01;;;;;;;;;;;11.40;99.90;;;;;;5013236;28;20057;-77
2022/11/11 10:03:30;;;;;;;20.83;16.08;;;11.30;99.90;;;;;;5002142;28;20160;-74
2022/11/11 10:06:17;;;;;;;30.75;19.58;;;11.40;99.90;;;;;;5003119;28;20074;-74
2022/11/11 10:09:01;;;;;;;20.60;15.43;;;11.30;99.90;;;;;;5002201;28;20049;-74
2022/11/11 10:12:09;;;;;;;27.00;17.60;;;11.40;99.90;;;;;;5004850;28;20050;-75
2022/11/11 10:14:41;;;;;;;19.27;15.15;;;11.30;99.90;;;;;;5005647;28;20046;-74
2022/11/11 10:17:22;;;;;;;23.23;16.30;;;11.30;99.90;;;;;;5022985;28;20056;-74
2022/11/11 10:20:08;;;;;;;24.63;16.25;;;11.40;99.90;;;;;;5022782;28;20041;-74
2022/11/11 10:22:36;;;;;;;20.48;16.65;;;11.30;99.90;;;;;;5019771;28;20049;-74
2022/11/11 10:25:11;;;;;;;27.15;17.80;;;11.30;99.90;;;;;;5019480;28;20080;-74
2022/11/11 10:27:40;;;;;;;26.67;18.30;;;11.30;99.90;;;;;;5003244;28;20037;-75
2022/11/11 10:30:27;;;;;;;24.58;16.63;;;11.40;99.90;;;;;;5002627;28;20035;-74
2022/11/11 10:33:10;;;;;;;23.70;17.48;;;11.40;99.90;;;;;;5019652;28;20060;-75
2022/11/11 10:35:38;;;;;;;19.65;17.05;;;11.40;99.90;;;;;;5022053;28;20037;-74
2022/11/11 10:38:09;;;;;;;24.08;17.35;;;11.40;99.90;;;;;;5008980;28;20073;-75
2022/11/11 10:40:57;;;;;;;25.63;16.03;;;11.40;99.90;;;;;;5006477;28;20049;-73
2022/11/11 10:43:27;;;;;;;24.25;15.20;;;11.40;99.90;;;;;;5022192;28;20045;-74
2022/11/11 10:46:31;;;;;;;18.13;13.60;;;11.40;99.90;;;;;;5021624;28;20549;-74
2022/11/11 10:49:17;;;;;;;21.60;15.60;;;11.40;99.90;;;;;;4984159;28;20042;-75
2022/11/11 10:51:56;;;;;;;24.65;16.00;;;11.40;99.90;;;;;;4999316;28;20081;-75
2022/11/11 10:54:33;;;;;;;20.88;16.35;;;11.40;99.90;;;;;;5008475;28;20132;-75
2022/11/11 10:57:07;;;;;;;25.35;16.95;;;11.40;99.90;;;;;;5005009;28;20129;-76
2022/11/11 10:59:40;;;;;;;22.92;16.48;;;11.40;99.90;;;;;;5002695;28;20497;-74
2022/11/11 11:02:06;;;;;;;23.23;17.30;;;11.40;99.90;;;;;;5001875;28;20053;-74
2022/11/11 11:04:48;;;;;;;19.60;15.60;;;11.40;99.90;;;;;;5003140;28;20060;-74
2022/11/11 11:07:21;;;;;;;20.90;15.85;;;11.40;99.90;;;;;;5006584;28;20030;-74
2022/11/11 11:09:58;;;;;;;20.55;15.75;;;11.40;99.90;;;;;;5009406;28;20045;-74
2022/11/11 11:12:34;;;;;;;23.40;15.30;;;11.50;99.90;;;;;;5007014;28;20461;-74
2022/11/11 11:15:12;;;;;;;25.55;15.63;;;11.40;99.90;;;;;;4988544;28;20038;-74
2022/11/11 11:17:48;;;;;;;23.77;15.80;;;11.50;99.90;;;;;;5023997;28;20046;-74
2022/11/11 11:20:19;;;;;;;28.80;17.83;;;11.50;99.90;;;;;;5008071;28;20409;-74
2022/11/11 11:22:49;;;;;;;19.98;14.13;;;11.50;99.90;;;;;;5006340;28;20088;-74
2022/11/11 11:25:18;;;;;;;20.05;15.73;;;11.50;99.90;;;;;;5004823;28;20436;-75
2022/11/11 11:27:44;;;;;;;21.40;15.05;;;11.50;99.90;;;;;;5005711;28;20121;-78
2022/11/11 11:30:19;;;;;;;22.85;13.88;;;11.50;99.90;;;;;;5003978;28;20034;-77
2022/11/11 11:33:00;;;;;;;25.00;15.25;;;11.50;99.90;;;;;;5005292;28;20046;-76
2022/11/11 11:35:41;;;;;;;23.15;16.63;;;11.50;99.90;;;;;;5005481;28;20052;-74
2022/11/11 11:38:08;;;;;;;21.70;14.73;;;11.60;99.90;;;;;;5005861;28;20257;-74
2022/11/11 11:40:47;;;;;;;18.10;16.00;;;11.50;99.90;;;;;;5008346;28;20076;-74
2022/11/11 11:43:36;;;;;;;23.60;15.55;;;11.50;99.90;;;;;;4969445;28;20046;-75
2022/11/11 11:46:36;;;;;;;22.17;15.40;;;11.50;99.90;;;;;;5004210;28;20050;-75
2022/11/11 11:49:08;;;;;;;26.90;15.07;;;11.50;99.90;;;;;;4987327;28;20044;-75
2022/11/11 11:51:55;;;;;;;16.48;14.45;;;11.50;99.90;;;;;;5004255;28;20054;-74
2022/11/11 11:54:36;;;;;;;18.80;13.60;;;11.50;99.90;;;;;;5005401;28;20121;-75
2022/11/11 11:57:26;;;;;;;22.45;15.52;;;11.50;99.90;;;;;;5005269;28;20046;-73
2022/11/11 12:00:05;;;;;;;20.48;16.63;;;11.50;99.90;;;;;;5005765;28;20077;-75
2022/11/11 12:02:49;;;;;;;23.52;15.40;;;11.50;99.90;;;;;;4996535;28;20044;-74
2022/11/11 12:05:40;;;;;;;22.05;15.98;;;11.50;99.90;;;;;;5003669;28;20132;-75
2022/11/11 12:08:12;;;;;;;20.17;15.02;;;11.50;99.90;;;;;;5003904;28;20038;-74
2022/11/11 12:10:53;;;;;;;23.33;15.75;;;11.50;99.90;;;;;;5004462;28;20357;-74
2022/11/11 12:13:46;;;;;;;23.20;15.13;;;11.50;99.90;;;;;;5021569;28;20072;-74
2022/11/11 12:16:41;;;;;;;19.33;14.23;;;11.50;99.90;;;;;;5005083;28;20045;-75
2022/11/11 12:19:16;;;;;;;18.85;15.43;;;11.50;99.90;;;;;;5003925;28;20129;-74
2022/11/11 12:22:05;;;;;;;19.83;14.80;;;11.50;99.90;;;;;;5005203;28;20437;-76
2022/11/11 12:25:06;;;;;;;16.48;13.57;;;11.50;99.90;;;;;;5015431;28;20136;-75
2022/11/11 12:27:44;;;;;;;16.27;14.07;;;11.60;99.90;;;;;;5017796;28;20049;-76
2022/11/11 12:30:30;;;;;;;32.03;16.45;;;11.60;99.90;;;;;;5023970;28;20600;-77
2022/11/11 12:33:01;;;;;;;25.33;16.00;;;11.60;99.90;;;;;;5016265;28;20030;-78
2022/11/11 12:35:41;;;;;;;24.55;14.38;;;11.60;99.90;;;;;;5002789;28;20134;-77
2022/11/11 12:38:12;;;;;;;25.60;17.05;;;11.60;99.90;;;;;;5004302;28;20617;-75
2022/11/11 12:41:01;;;;;;;24.55;13.80;;;11.60;99.90;;;;;;5005199;28;20243;-75
2022/11/11 12:43:35;;;;;;;24.38;16.63;;;11.60;99.90;;;;;;5006148;28;20077;-75
2022/11/11 12:46:14;;;;;;;17.98;14.73;;;11.60;99.90;;;;;;5005025;28;20116;-75
2022/11/11 12:48:58;;;;;;;17.02;13.70;;;11.60;99.90;;;;;;5005883;28;20077;-74
2022/11/11 12:51:53;;;;;;;20.75;14.63;;;11.60;99.90;;;;;;5004849;28;20084;-75
2022/11/11 12:54:50;;;;;;;22.65;14.15;;;11.60;99.90;;;;;;5003639;28;20057;-75
2022/11/11 12:57:53;;;;;;;22.65;14.45;;;11.60;99.90;;;;;;5003907;28;20117;-77
2022/11/11 13:00:21;;;;;;;25.88;13.68;;;11.60;99.90;;;;;;5002751;28;20153;-75
2022/11/11 13:03:12;;;;;;;19.63;14.63;;;11.60;99.90;;;;;;5003470;28;20037;-75
2022/11/11 13:05:41;;;;;;;28.80;13.73;;;11.60;99.90;;;;;;5022580;28;20080;-76
2022/11/11 13:08:39;;;;;;;17.23;13.73;;;11.60;99.90;;;;;;5014808;28;20139;-75
2022/11/11 13:11:27;;;;;;;24.95;14.05;;;11.60;99.90;;;;;;5018382;28;20057;-76
2022/11/11 13:14:05;;;;;;;29.75;14.93;;;11.70;99.90;;;;;;5023399;28;20299;-74
2022/11/11 13:16:31;;;;;;;18.95;14.45;;;11.70;99.90;;;;;;5006206;28;20400;-76
2022/11/11 13:19:02;;;;;;;22.05;14.95;;;11.60;99.90;;;;;;5003734;28;20099;-74
2022/11/11 13:21:41;;;;;;;19.75;14.68;;;11.60;99.90;;;;;;5002921;28;20563;-75
2022/11/11 13:24:11;;;;;;;22.83;13.45;;;11.60;99.90;;;;;;5020355;28;20080;-73
2022/11/11 13:26:51;;;;;;;23.17;14.65;;;11.70;99.90;;;;;;5007503;28;20044;-75
2022/11/11 13:29:36;;;;;;;20.67;14.60;;;11.60;99.90;;;;;;5000712;28;20401;-76
2022/11/11 13:32:05;;;;;;;25.08;16.67;;;11.70;99.90;;;;;;5015633;28;20053;-76
2022/11/11 13:34:33;;;;;;;16.70;14.50;;;11.70;99.90;;;;;;5001561;28;20225;-75
2022/11/11 13:37:01;;;;;;;20.45;13.75;;;11.70;99.90;;;;;;5004052;28;20034;-77
2022/11/11 13:39:29;;;;;;;16.30;13.48;;;11.70;99.90;;;;;;5002833;28;20368;-75
2022/11/11 13:41:56;;;;;;;22.02;14.77;;;11.70;99.90;;;;;;5004467;28;20050;-76
2022/11/11 13:44:27;;;;;;;16.92;11.57;;;11.60;99.90;;;;;;5004140;28;20041;-76
2022/11/11 13:47:03;;;;;;;22.20;12.25;;;11.70;99.90;;;;;;5001672;28;20045;-80
2022/11/11 13:49:49;;;;;;;20.95;13.98;;;11.60;99.90;;;;;;4993534;28;20049;-79
2022/11/11 13:52:30;;;;;;;18.35;13.52;;;11.60;99.90;;;;;;5006860;28;20504;-76
2022/11/11 13:55:02;;;;;;;19.58;13.65;;;11.60;99.90;;;;;;5003775;28;20062;-74
2022/11/11 13:57:31;;;;;;;17.15;15.13;;;11.60;99.90;;;;;;5019333;28;20044;-76
2022/11/11 14:00:15;;;;;;;17.75;12.77;;;11.60;99.90;;;;;;5007638;28;20046;-75
2022/11/11 14:02:42;;;;;;;19.25;13.43;;;11.60;99.90;;;;;;5013162;28;20056;-79